sensor_id;sensor_type;location;lat;lon;timestamp;pressure;altitude;pressure_sealevel;temperature;humidity
39083;BME280;24834;44.444;26.098;2023-04-25T00:05:40;99745.84;;;17.71;
39083;BME280;24834;44.444;26.098;2023-04-25T00:11:45;99746.31;;;17.73;
39083;BME280;24834;44.444;26.098;2023-04-25T00:17:48;99747.09;;;17.74;
39083;BME280;24834;44.444;26.098;2023-04-25T00:23:51;99745.72;;;17.80;
39083;BME280;24834;44.444;26.098;2023-04-25T00:29:55;99761.41;;;17.85;
39083;BME280;24834;44.444;26.098;2023-04-25T00:35:58;99754.19;;;17.85;
39083;BME280;24834;44.444;26.098;2023-04-25T00:42:02;99748.25;;;17.92;
39083;BME280;24834;44.444;26.098;2023-04-25T00:48:05;99750.47;;;18.05;
39083;BME280;24834;44.444;26.098;2023-04-25T00:54:08;99754.31;;;18.08;
39083;BME280;24834;44.444;26.098;2023-04-25T01:00:11;99762.41;;;18.11;
39083;BME280;24834;44.444;26.098;2023-04-25T01:06:14;99762.19;;;17.70;
39083;BME280;24834;44.444;26.098;2023-04-25T01:12:17;99755.41;;;17.56;
39083;BME280;24834;44.444;26.098;2023-04-25T01:18:20;99747.94;;;17.46;
39083;BME280;24834;44.444;26.098;2023-04-25T01:24:22;99734.75;;;17.34;
39083;BME280;24834;44.444;26.098;2023-04-25T01:30:28;99728.81;;;17.41;
39083;BME280;24834;44.444;26.098;2023-04-25T01:36:32;99734.75;;;17.34;
39083;BME280;24834;44.444;26.098;2023-04-25T01:42:35;99744.50;;;17.30;
39083;BME280;24834;44.444;26.098;2023-04-25T01:48:38;99751.88;;;17.21;
39083;BME280;24834;44.444;26.098;2023-04-25T01:54:41;99742.91;;;16.98;
39083;BME280;24834;44.444;26.098;2023-04-25T02:00:49;99743.84;;;16.78;
39083;BME280;24834;44.444;26.098;2023-04-25T02:06:51;99733.44;;;16.85;
39083;BME280;24834;44.444;26.098;2023-04-25T02:12:54;99739.84;;;16.84;
39083;BME280;24834;44.444;26.098;2023-04-25T02:19:22;99724.19;;;16.94;
39083;BME280;24834;44.444;26.098;2023-04-25T02:25:26;99715.00;;;17.04;
39083;BME280;24834;44.444;26.098;2023-04-25T02:31:29;99708.38;;;16.98;
39083;BME280;24834;44.444;26.098;2023-04-25T02:37:34;99719.53;;;17.04;
39083;BME280;24834;44.444;26.098;2023-04-25T02:43:37;99701.44;;;16.66;
39083;BME280;24834;44.444;26.098;2023-04-25T02:49:39;99697.81;;;16.86;
39083;BME280;24834;44.444;26.098;2023-04-25T02:55:44;99688.06;;;16.90;
39083;BME280;24834;44.444;26.098;2023-04-25T03:01:47;99667.19;;;17.04;
39083;BME280;24834;44.444;26.098;2023-04-25T03:07:49;99669.00;;;16.88;
39083;BME280;24834;44.444;26.098;2023-04-25T03:13:55;99671.34;;;16.89;
39083;BME280;24834;44.444;26.098;2023-04-25T03:19:58;99675.19;;;16.49;
39083;BME280;24834;44.444;26.098;2023-04-25T03:26:00;99680.13;;;16.10;
39083;BME280;24834;44.444;26.098;2023-04-25T03:32:03;99673.19;;;15.94;
39083;BME280;24834;44.444;26.098;2023-04-25T03:38:08;99683.66;;;15.90;
39083;BME280;24834;44.444;26.098;2023-04-25T03:44:14;99673.75;;;15.63;
39083;BME280;24834;44.444;26.098;2023-04-25T03:50:17;99682.47;;;15.63;
39083;BME280;24834;44.444;26.098;2023-04-25T03:56:21;99682.78;;;15.74;
39083;BME280;24834;44.444;26.098;2023-04-25T04:02:31;99687.53;;;15.68;
39083;BME280;24834;44.444;26.098;2023-04-25T04:08:35;99686.22;;;15.62;
39083;BME280;24834;44.444;26.098;2023-04-25T10:16:29;99657.78;;;19.89;
39083;BME280;24834;44.444;26.098;2023-04-25T10:22:42;99646.16;;;19.71;
39083;BME280;24834;44.444;26.098;2023-04-25T10:28:58;99646.69;;;20.53;
39083;BME280;24834;44.444;26.098;2023-04-25T10:35:17;99622.66;;;20.53;
39083;BME280;24834;44.444;26.098;2023-04-25T10:41:20;99633.84;;;21.13;
39083;BME280;24834;44.444;26.098;2023-04-25T10:47:43;99629.72;;;21.23;
39083;BME280;24834;44.444;26.098;2023-04-25T10:54:08;99624.84;;;21.39;
39083;BME280;24834;44.444;26.098;2023-04-25T11:00:14;99618.16;;;21.91;
39083;BME280;24834;44.444;26.098;2023-04-25T11:06:45;99615.59;;;22.19;
39083;BME280;24834;44.444;26.098;2023-04-25T11:12:52;99606.44;;;22.31;
39083;BME280;24834;44.444;26.098;2023-04-25T11:18:58;99593.03;;;22.55;
39083;BME280;24834;44.444;26.098;2023-04-25T11:25:10;99580.00;;;22.64;
39083;BME280;24834;44.444;26.098;2023-04-25T11:31:12;99566.53;;;23.03;
39083;BME280;24834;44.444;26.098;2023-04-25T11:37:19;99562.38;;;23.78;
39083;BME280;24834;44.444;26.098;2023-04-25T11:43:22;99550.41;;;23.21;
39083;BME280;24834;44.444;26.098;2023-04-25T11:49:30;99538.25;;;22.77;
39083;BME280;24834;44.444;26.098;2023-04-25T11:55:34;99521.84;;;22.44;
39083;BME280;24834;44.444;26.098;2023-04-25T12:01:41;99521.31;;;21.43;
39083;BME280;24834;44.444;26.098;2023-04-25T12:07:49;99563.56;;;20.58;
39083;BME280;24834;44.444;26.098;2023-04-25T12:13:52;99574.03;;;18.62;
39083;BME280;24834;44.444;26.098;2023-04-25T12:19:57;99580.88;;;17.99;
39083;BME280;24834;44.444;26.098;2023-04-25T12:25:59;99559.75;;;17.52;
39083;BME280;24834;44.444;26.098;2023-04-25T12:32:06;99546.88;;;17.19;
39083;BME280;24834;44.444;26.098;2023-04-25T12:38:10;99544.56;;;17.02;
39083;BME280;24834;44.444;26.098;2023-04-25T12:44:13;99556.81;;;17.22;
39083;BME280;24834;44.444;26.098;2023-04-25T12:50:19;99546.03;;;17.15;
39083;BME280;24834;44.444;26.098;2023-04-25T12:56:21;99550.81;;;17.25;
39083;BME280;24834;44.444;26.098;2023-04-25T13:02:29;99546.84;;;17.35;
39083;BME280;24834;44.444;26.098;2023-04-25T13:08:32;99526.81;;;17.56;
39083;BME280;24834;44.444;26.098;2023-04-25T13:14:35;99506.41;;;17.80;
39083;BME280;24834;44.444;26.098;2023-04-25T13:20:39;99508.91;;;17.92;
39083;BME280;24834;44.444;26.098;2023-04-25T13:26:43;99503.78;;;18.02;
39083;BME280;24834;44.444;26.098;2023-04-25T13:32:45;99517.09;;;18.02;
39083;BME280;24834;44.444;26.098;2023-04-25T13:38:47;99498.06;;;18.68;
39083;BME280;24834;44.444;26.098;2023-04-25T13:44:51;99500.09;;;19.31;
39083;BME280;24834;44.444;26.098;2023-04-25T13:50:54;99493.72;;;19.72;
39083;BME280;24834;44.444;26.098;2023-04-25T13:56:57;99487.47;;;20.35;
39083;BME280;24834;44.444;26.098;2023-04-25T14:03:02;99479.81;;;20.30;
39083;BME280;24834;44.444;26.098;2023-04-25T14:09:07;99470.56;;;20.71;
39083;BME280;24834;44.444;26.098;2023-04-25T14:15:12;99466.22;;;21.24;
39083;BME280;24834;44.444;26.098;2023-04-25T14:21:14;99460.22;;;21.70;
39083;BME280;24834;44.444;26.098;2023-04-25T14:27:18;99449.47;;;21.38;
39083;BME280;24834;44.444;26.098;2023-04-25T14:33:21;99446.00;;;21.30;
39083;BME280;24834;44.444;26.098;2023-04-25T14:39:24;99447.19;;;21.33;
39083;BME280;24834;44.444;26.098;2023-04-25T14:45:26;99451.09;;;21.85;
39083;BME280;24834;44.444;26.098;2023-04-25T14:51:28;99437.34;;;22.08;
39083;BME280;24834;44.444;26.098;2023-04-25T14:57:33;99427.75;;;21.75;
39083;BME280;24834;44.444;26.098;2023-04-25T15:03:36;99408.25;;;21.64;
39083;BME280;24834;44.444;26.098;2023-04-25T15:09:38;99394.38;;;21.12;
39083;BME280;24834;44.444;26.098;2023-04-25T15:15:41;99389.66;;;20.74;
39083;BME280;24834;44.444;26.098;2023-04-25T15:21:43;99362.50;;;20.61;
39083;BME280;24834;44.444;26.098;2023-04-25T15:27:46;99385.28;;;20.41;
39083;BME280;24834;44.444;26.098;2023-04-25T15:33:50;99388.75;;;19.54;
39083;BME280;24834;44.444;26.098;2023-04-25T15:40:01;99399.38;;;19.47;
39083;BME280;24834;44.444;26.098;2023-04-25T15:46:08;99402.00;;;19.43;
39083;BME280;24834;44.444;26.098;2023-04-25T15:52:11;99406.94;;;19.08;
39083;BME280;24834;44.444;26.098;2023-04-25T15:58:13;99412.16;;;18.45;
39083;BME280;24834;44.444;26.098;2023-04-25T16:04:15;99416.59;;;18.15;
39083;BME280;24834;44.444;26.098;2023-04-25T16:10:18;99421.66;;;17.78;
39083;BME280;24834;44.444;26.098;2023-04-25T16:16:22;99421.09;;;18.11;
39083;BME280;24834;44.444;26.098;2023-04-25T16:22:25;99429.19;;;18.41;
39083;BME280;24834;44.444;26.098;2023-04-25T16:28:29;99422.28;;;18.36;
39083;BME280;24834;44.444;26.098;2023-04-25T16:34:31;99420.31;;;18.10;
39083;BME280;24834;44.444;26.098;2023-04-25T16:40:34;99425.16;;;17.82;
39083;BME280;24834;44.444;26.098;2023-04-25T16:46:36;99433.66;;;17.69;
39083;BME280;24834;44.444;26.098;2023-04-25T16:52:39;99431.41;;;17.51;
39083;BME280;24834;44.444;26.098;2023-04-25T16:58:44;99435.78;;;17.40;
39083;BME280;24834;44.444;26.098;2023-04-25T17:04:46;99438.59;;;17.32;
39083;BME280;24834;44.444;26.098;2023-04-25T17:10:49;99450.00;;;17.32;
39083;BME280;24834;44.444;26.098;2023-04-25T17:16:51;99448.47;;;17.31;
39083;BME280;24834;44.444;26.098;2023-04-25T17:22:54;99450.78;;;17.33;
39083;BME280;24834;44.444;26.098;2023-04-25T17:28:58;99467.34;;;17.26;
39083;BME280;24834;44.444;26.098;2023-04-25T17:35:01;99466.56;;;17.26;
39083;BME280;24834;44.444;26.098;2023-04-25T17:41:04;99467.22;;;17.38;
39083;BME280;24834;44.444;26.098;2023-04-25T17:47:08;99476.00;;;17.42;
39083;BME280;24834;44.444;26.098;2023-04-25T17:53:11;99488.81;;;17.37;
39083;BME280;24834;44.444;26.098;2023-04-25T17:59:13;99494.38;;;17.32;
39083;BME280;24834;44.444;26.098;2023-04-25T18:05:17;99492.19;;;17.18;
39083;BME280;24834;44.444;26.098;2023-04-25T18:11:22;99492.91;;;17.15;
39083;BME280;24834;44.444;26.098;2023-04-25T18:17:24;99498.50;;;16.94;
39083;BME280;24834;44.444;26.098;2023-04-25T18:23:27;99501.47;;;16.93;
39083;BME280;24834;44.444;26.098;2023-04-25T18:29:30;99505.44;;;16.99;
39083;BME280;24834;44.444;26.098;2023-04-25T18:35:35;99504.34;;;16.84;
39083;BME280;24834;44.444;26.098;2023-04-25T18:41:46;99489.19;;;16.85;
39083;BME280;24834;44.444;26.098;2023-04-25T18:47:59;99491.25;;;16.76;
39083;BME280;24834;44.444;26.098;2023-04-25T18:54:03;99489.38;;;16.61;
39083;BME280;24834;44.444;26.098;2023-04-25T19:00:06;99493.47;;;16.43;
39083;BME280;24834;44.444;26.098;2023-04-25T19:06:09;99490.50;;;16.32;
39083;BME280;24834;44.444;26.098;2023-04-25T19:12:12;99494.44;;;16.22;
39083;BME280;24834;44.444;26.098;2023-04-25T19:18:14;99496.13;;;16.15;
